sensor_id;sensor_type;location;lat;lon;timestamp;temperature;humidity
69589;SHT31;56792;50.644;17.984;2023-06-22T00:01:20;21.03;81.65
69589;SHT31;56792;50.644;17.984;2023-06-22T00:03:49;21.01;81.83
69589;SHT31;56792;50.644;17.984;2023-06-22T00:06:17;21.00;81.86
69589;SHT31;56792;50.644;17.984;2023-06-22T00:08:45;21.00;81.88
69589;SHT31;56792;50.644;17.984;2023-06-22T00:11:14;21.00;81.87
69589;SHT31;56792;50.644;17.984;2023-06-22T00:13:42;20.98;81.85
69589;SHT31;56792;50.644;17.984;2023-06-22T00:16:10;20.97;81.87
69589;SHT31;56792;50.644;17.984;2023-06-22T00:18:39;20.96;81.93
69589;SHT31;56792;50.644;17.984;2023-06-22T00:21:12;20.94;81.90
69589;SHT31;56792;50.644;17.984;2023-06-22T00:23:41;20.93;81.90
69589;SHT31;56792;50.644;17.984;2023-06-22T00:26:09;20.93;81.96
69589;SHT31;56792;50.644;17.984;2023-06-22T00:28:37;20.91;82.01
69589;SHT31;56792;50.644;17.984;2023-06-22T00:31:06;20.89;82.01
69589;SHT31;56792;50.644;17.984;2023-06-22T00:33:34;20.88;82.07
69589;SHT31;56792;50.644;17.984;2023-06-22T00:36:05;20.87;82.17
69589;SHT31;56792;50.644;17.984;2023-06-22T00:38:33;20.88;82.18
69589;SHT31;56792;50.644;17.984;2023-06-22T00:41:05;20.88;82.09
69589;SHT31;56792;50.644;17.984;2023-06-22T00:43:35;20.89;82.01
69589;SHT31;56792;50.644;17.984;2023-06-22T00:46:03;20.90;82.06
69589;SHT31;56792;50.644;17.984;2023-06-22T00:48:31;20.88;82.12
69589;SHT31;56792;50.644;17.984;2023-06-22T00:51:02;20.88;82.13
69589;SHT31;56792;50.644;17.984;2023-06-22T00:53:31;20.88;82.13
69589;SHT31;56792;50.644;17.984;2023-06-22T00:56:00;20.88;82.18
69589;SHT31;56792;50.644;17.984;2023-06-22T00:58:31;20.87;82.19
69589;SHT31;56792;50.644;17.984;2023-06-22T01:01:00;20.86;82.32
69589;SHT31;56792;50.644;17.984;2023-06-22T01:03:28;20.86;82.39
69589;SHT31;56792;50.644;17.984;2023-06-22T01:05:58;20.84;82.39
69589;SHT31;56792;50.644;17.984;2023-06-22T01:08:38;20.82;82.41
69589;SHT31;56792;50.644;17.984;2023-06-22T01:11:18;20.80;82.52
69589;SHT31;56792;50.644;17.984;2023-06-22T01:13:56;20.78;82.58
69589;SHT31;56792;50.644;17.984;2023-06-22T01:16:33;20.77;82.60
69589;SHT31;56792;50.644;17.984;2023-06-22T01:19:09;20.77;82.56
69589;SHT31;56792;50.644;17.984;2023-06-22T01:21:55;20.76;82.59
69589;SHT31;56792;50.644;17.984;2023-06-22T01:24:27;20.76;82.63
69589;SHT31;56792;50.644;17.984;2023-06-22T01:27:15;20.74;82.67
69589;SHT31;56792;50.644;17.984;2023-06-22T01:29:58;20.72;82.64
69589;SHT31;56792;50.644;17.984;2023-06-22T01:32:28;20.70;82.60
69589;SHT31;56792;50.644;17.984;2023-06-22T01:35:01;20.69;82.62
69589;SHT31;56792;50.644;17.984;2023-06-22T01:37:33;20.68;82.58
69589;SHT31;56792;50.644;17.984;2023-06-22T01:40:05;20.65;82.50
69589;SHT31;56792;50.644;17.984;2023-06-22T01:42:35;20.64;82.50
69589;SHT31;56792;50.644;17.984;2023-06-22T01:45:07;20.61;82.48
69589;SHT31;56792;50.644;17.984;2023-06-22T01:47:37;20.57;82.52
69589;SHT31;56792;50.644;17.984;2023-06-22T01:50:07;20.55;82.49
69589;SHT31;56792;50.644;17.984;2023-06-22T01:52:37;20.51;82.48
69589;SHT31;56792;50.644;17.984;2023-06-22T01:55:05;20.49;82.45
69589;SHT31;56792;50.644;17.984;2023-06-22T01:57:35;20.44;82.49
69589;SHT31;56792;50.644;17.984;2023-06-22T02:00:05;20.43;82.54
69589;SHT31;56792;50.644;17.984;2023-06-22T02:02:42;20.39;82.56
69589;SHT31;56792;50.644;17.984;2023-06-22T02:05:18;20.38;82.51
69589;SHT31;56792;50.644;17.984;2023-06-22T02:07:51;20.35;82.43
69589;SHT31;56792;50.644;17.984;2023-06-22T02:10:26;20.35;82.50
69589;SHT31;56792;50.644;17.984;2023-06-22T02:12:57;20.34;82.50
69589;SHT31;56792;50.644;17.984;2023-06-22T02:15:28;20.34;82.63
69589;SHT31;56792;50.644;17.984;2023-06-22T02:17:57;20.33;82.68
69589;SHT31;56792;50.644;17.984;2023-06-22T02:20:26;20.33;82.72
69589;SHT31;56792;50.644;17.984;2023-06-22T02:22:56;20.33;82.72
69589;SHT31;56792;50.644;17.984;2023-06-22T02:25:24;20.34;82.77
69589;SHT31;56792;50.644;17.984;2023-06-22T02:27:52;20.34;82.76
69589;SHT31;56792;50.644;17.984;2023-06-22T02:30:21;20.33;82.77
69589;SHT31;56792;50.644;17.984;2023-06-22T02:32:49;20.34;82.77
69589;SHT31;56792;50.644;17.984;2023-06-22T02:35:24;20.35;82.74
69589;SHT31;56792;50.644;17.984;2023-06-22T02:37:53;20.36;82.76
69589;SHT31;56792;50.644;17.984;2023-06-22T02:40:21;20.36;82.78
69589;SHT31;56792;50.644;17.984;2023-06-22T02:42:49;20.36;82.80
69589;SHT31;56792;50.644;17.984;2023-06-22T02:45:18;20.37;82.90
69589;SHT31;56792;50.644;17.984;2023-06-22T02:47:46;20.36;82.97
69589;SHT31;56792;50.644;17.984;2023-06-22T02:50:15;20.36;82.90
69589;SHT31;56792;50.644;17.984;2023-06-22T02:52:44;20.36;82.87
69589;SHT31;56792;50.644;17.984;2023-06-22T02:55:13;20.37;82.80
69589;SHT31;56792;50.644;17.984;2023-06-22T02:57:43;20.36;82.83
69589;SHT31;56792;50.644;17.984;2023-06-22T03:00:13;20.37;82.79
69589;SHT31;56792;50.644;17.984;2023-06-22T03:02:43;20.38;82.77
69589;SHT31;56792;50.644;17.984;2023-06-22T03:05:13;20.38;82.76
69589;SHT31;56792;50.644;17.984;2023-06-22T03:07:44;20.39;82.79
69589;SHT31;56792;50.644;17.984;2023-06-22T03:10:13;20.41;82.80
69589;SHT31;56792;50.644;17.984;2023-06-22T03:12:42;20.43;82.79
69589;SHT31;56792;50.644;17.984;2023-06-22T03:15:11;20.46;82.78
69589;SHT31;56792;50.644;17.984;2023-06-22T03:17:40;20.48;82.77
69589;SHT31;56792;50.644;17.984;2023-06-22T03:20:09;20.50;82.80
69589;SHT31;56792;50.644;17.984;2023-06-22T03:22:38;20.53;82.80
69589;SHT31;56792;50.644;17.984;2023-06-22T03:25:09;20.56;82.88
69589;SHT31;56792;50.644;17.984;2023-06-22T03:27:39;20.58;82.81
69589;SHT31;56792;50.644;17.984;2023-06-22T03:30:10;20.60;82.80
69589;SHT31;56792;50.644;17.984;2023-06-22T03:32:39;20.65;82.79
69589;SHT31;56792;50.644;17.984;2023-06-22T03:35:09;20.67;82.76
69589;SHT31;56792;50.644;17.984;2023-06-22T03:37:40;20.68;82.74
69589;SHT31;56792;50.644;17.984;2023-06-22T03:40:09;20.69;82.77
69589;SHT31;56792;50.644;17.984;2023-06-22T03:42:39;20.71;82.72
69589;SHT31;56792;50.644;17.984;2023-06-22T03:45:09;20.72;82.70
69589;SHT31;56792;50.644;17.984;2023-06-22T03:47:38;20.73;82.69
69589;SHT31;56792;50.644;17.984;2023-06-22T03:50:08;20.75;82.73
69589;SHT31;56792;50.644;17.984;2023-06-22T03:52:39;20.78;82.72
69589;SHT31;56792;50.644;17.984;2023-06-22T03:55:08;20.82;82.71
69589;SHT31;56792;50.644;17.984;2023-06-22T03:57:36;20.85;82.71
69589;SHT31;56792;50.644;17.984;2023-06-22T04:00:06;20.87;82.80
69589;SHT31;56792;50.644;17.984;2023-06-22T04:02:40;20.92;82.93
69589;SHT31;56792;50.644;17.984;2023-06-22T04:05:09;20.94;82.98
69589;SHT31;56792;50.644;17.984;2023-06-22T04:07:37;20.96;82.98
69589;SHT31;56792;50.644;17.984;2023-06-22T04:10:06;20.97;82.99
69589;SHT31;56792;50.644;17.984;2023-06-22T04:12:35;20.99;82.96
69589;SHT31;56792;50.644;17.984;2023-06-22T04:15:04;21.02;82.97
69589;SHT31;56792;50.644;17.984;2023-06-22T04:17:35;21.04;82.96
69589;SHT31;56792;50.644;17.984;2023-06-22T04:20:04;21.08;82.89
69589;SHT31;56792;50.644;17.984;2023-06-22T04:22:34;21.12;82.80
69589;SHT31;56792;50.644;17.984;2023-06-22T04:25:03;21.16;82.78
69589;SHT31;56792;50.644;17.984;2023-06-22T04:27:33;21.21;82.74
69589;SHT31;56792;50.644;17.984;2023-06-22T04:30:04;21.23;82.76
69589;SHT31;56792;50.644;17.984;2023-06-22T04:32:34;21.28;82.80
69589;SHT31;56792;50.644;17.984;2023-06-22T04:35:02;21.33;82.70
69589;SHT31;56792;50.644;17.984;2023-06-22T04:37:32;21.37;82.68
69589;SHT31;56792;50.644;17.984;2023-06-22T04:40:00;21.41;82.60
69589;SHT31;56792;50.644;17.984;2023-06-22T04:42:30;21.46;82.60
69589;SHT31;56792;50.644;17.984;2023-06-22T04:45:02;21.52;82.57
69589;SHT31;56792;50.644;17.984;2023-06-22T04:47:32;21.57;82.48
69589;SHT31;56792;50.644;17.984;2023-06-22T04:50:00;21.62;82.46
69589;SHT31;56792;50.644;17.984;2023-06-22T04:52:31;21.66;82.41
69589;SHT31;56792;50.644;17.984;2023-06-22T04:54:59;21.70;82.38
69589;SHT31;56792;50.644;17.984;2023-06-22T04:57:29;21.75;82.30
69589;SHT31;56792;50.644;17.984;2023-06-22T04:59:58;21.79;82.36
69589;SHT31;56792;50.644;17.984;2023-06-22T05:02:38;21.84;82.23
69589;SHT31;56792;50.644;17.984;2023-06-22T05:05:07;21.88;82.14
69589;SHT31;56792;50.644;17.984;2023-06-22T05:07:39;21.90;81.98
69589;SHT31;56792;50.644;17.984;2023-06-22T05:10:10;21.95;81.80
69589;SHT31;56792;50.644;17.984;2023-06-22T05:12:39;21.99;81.79
69589;SHT31;56792;50.644;17.984;2023-06-22T05:15:08;22.04;81.69
69589;SHT31;56792;50.644;17.984;2023-06-22T05:17:37;22.08;81.48
69589;SHT31;56792;50.644;17.984;2023-06-22T05:20:09;22.12;81.37
69589;SHT31;56792;50.644;17.984;2023-06-22T05:22:39;22.17;81.29
69589;SHT31;56792;50.644;17.984;2023-06-22T05:25:09;22.21;81.09
69589;SHT31;56792;50.644;17.984;2023-06-22T05:27:38;22.25;80.91
69589;SHT31;56792;50.644;17.984;2023-06-22T05:30:07;22.31;80.66
69589;SHT31;56792;50.644;17.984;2023-06-22T05:32:37;22.34;80.30
69589;SHT31;56792;50.644;17.984;2023-06-22T05:35:06;22.41;80.24
69589;SHT31;56792;50.644;17.984;2023-06-22T05:37:35;22.46;80.17
69589;SHT31;56792;50.644;17.984;2023-06-22T05:40:04;22.50;79.74
69589;SHT31;56792;50.644;17.984;2023-06-22T05:42:36;22.56;79.52
69589;SHT31;56792;50.644;17.984;2023-06-22T05:45:05;22.62;79.14
69589;SHT31;56792;50.644;17.984;2023-06-22T05:47:35;22.68;79.09
69589;SHT31;56792;50.644;17.984;2023-06-22T05:50:04;22.74;78.59
69589;SHT31;56792;50.644;17.984;2023-06-22T05:52:34;22.82;78.31
69589;SHT31;56792;50.644;17.984;2023-06-22T05:55:03;22.89;77.73
69589;SHT31;56792;50.644;17.984;2023-06-22T05:57:32;22.95;77.27
69589;SHT31;56792;50.644;17.984;2023-06-22T06:00:01;23.03;76.91
69589;SHT31;56792;50.644;17.984;2023-06-22T06:02:33;23.10;76.67
69589;SHT31;56792;50.644;17.984;2023-06-22T06:05:01;23.17;76.19
69589;SHT31;56792;50.644;17.984;2023-06-22T06:07:30;23.22;76.08
69589;SHT31;56792;50.644;17.984;2023-06-22T06:10:00;23.29;76.03
69589;SHT31;56792;50.644;17.984;2023-06-22T06:12:28;23.37;75.74
69589;SHT31;56792;50.644;17.984;2023-06-22T06:14:56;23.46;75.56
69589;SHT31;56792;50.644;17.984;2023-06-22T06:17:25;23.55;75.40
69589;SHT31;56792;50.644;17.984;2023-06-22T06:19:53;23.64;75.30
69589;SHT31;56792;50.644;17.984;2023-06-22T06:22:21;23.74;75.42
69589;SHT31;56792;50.644;17.984;2023-06-22T06:24:50;23.83;75.19
69589;SHT31;56792;50.644;17.984;2023-06-22T06:27:18;23.92;74.88
69589;SHT31;56792;50.644;17.984;2023-06-22T06:29:46;24.02;74.57
69589;SHT31;56792;50.644;17.984;2023-06-22T06:32:14;24.11;73.73
69589;SHT31;56792;50.644;17.984;2023-06-22T06:34:42;24.20;73.26
69589;SHT31;56792;50.644;17.984;2023-06-22T06:37:11;24.28;73.05
69589;SHT31;56792;50.644;17.984;2023-06-22T06:39:39;24.40;73.22
69589;SHT31;56792;50.644;17.984;2023-06-22T06:42:07;24.48;72.44
69589;SHT31;56792;50.644;17.984;2023-06-22T06:44:36;24.58;73.01
69589;SHT31;56792;50.644;17.984;2023-06-22T06:47:05;24.67;72.25
69589;SHT31;56792;50.644;17.984;2023-06-22T06:49:33;24.77;72.10
69589;SHT31;56792;50.644;17.984;2023-06-22T06:52:02;24.88;71.52
69589;SHT31;56792;50.644;17.984;2023-06-22T06:54:32;25.01;71.27
69589;SHT31;56792;50.644;17.984;2023-06-22T06:57:00;25.15;70.64
69589;SHT31;56792;50.644;17.984;2023-06-22T06:59:29;25.25;70.27
69589;SHT31;56792;50.644;17.984;2023-06-22T07:01:57;25.39;70.51
69589;SHT31;56792;50.644;17.984;2023-06-22T07:04:26;25.51;70.39
69589;SHT31;56792;50.644;17.984;2023-06-22T07:06:54;25.67;70.36
69589;SHT31;56792;50.644;17.984;2023-06-22T07:09:25;25.80;69.90
69589;SHT31;56792;50.644;17.984;2023-06-22T07:11:53;25.96;69.14
69589;SHT31;56792;50.644;17.984;2023-06-22T07:14:21;26.11;68.67
69589;SHT31;56792;50.644;17.984;2023-06-22T07:16:49;26.25;68.51
69589;SHT31;56792;50.644;17.984;2023-06-22T07:19:24;26.38;67.50
69589;SHT31;56792;50.644;17.984;2023-06-22T07:21:53;26.50;67.39
69589;SHT31;56792;50.644;17.984;2023-06-22T07:24:22;26.63;66.59
69589;SHT31;56792;50.644;17.984;2023-06-22T07:26:51;26.76;66.73
69589;SHT31;56792;50.644;17.984;2023-06-22T07:29:19;26.91;66.73
69589;SHT31;56792;50.644;17.984;2023-06-22T07:31:48;27.05;66.34
69589;SHT31;56792;50.644;17.984;2023-06-22T07:34:17;27.17;66.35
69589;SHT31;56792;50.644;17.984;2023-06-22T07:36:46;27.30;65.08
69589;SHT31;56792;50.644;17.984;2023-06-22T07:39:14;27.41;64.81
69589;SHT31;56792;50.644;17.984;2023-06-22T07:41:43;27.54;65.27
69589;SHT31;56792;50.644;17.984;2023-06-22T07:44:11;27.68;64.77
69589;SHT31;56792;50.644;17.984;2023-06-22T07:46:39;27.82;64.30
69589;SHT31;56792;50.644;17.984;2023-06-22T07:49:07;27.97;64.26
69589;SHT31;56792;50.644;17.984;2023-06-22T07:51:36;28.09;63.82
69589;SHT31;56792;50.644;17.984;2023-06-22T07:54:04;28.22;63.86
69589;SHT31;56792;50.644;17.984;2023-06-22T07:56:33;28.32;61.93
69589;SHT31;56792;50.644;17.984;2023-06-22T07:59:02;28.42;61.67
69589;SHT31;56792;50.644;17.984;2023-06-22T08:01:30;28.61;62.16
69589;SHT31;56792;50.644;17.984;2023-06-22T08:03:59;28.73;61.34
69589;SHT31;56792;50.644;17.984;2023-06-22T08:06:28;28.86;60.28
69589;SHT31;56792;50.644;17.984;2023-06-22T08:08:57;28.96;60.11
69589;SHT31;56792;50.644;17.984;2023-06-22T08:11:26;29.13;60.22
69589;SHT31;56792;50.644;17.984;2023-06-22T08:13:54;29.26;58.97
69589;SHT31;56792;50.644;17.984;2023-06-22T08:16:24;29.32;58.44
69589;SHT31;56792;50.644;17.984;2023-06-22T08:18:52;29.39;58.07
69589;SHT31;56792;50.644;17.984;2023-06-22T08:21:21;29.56;57.92
69589;SHT31;56792;50.644;17.984;2023-06-22T08:23:49;29.79;57.66
69589;SHT31;56792;50.644;17.984;2023-06-22T08:26:17;29.99;58.07
69589;SHT31;56792;50.644;17.984;2023-06-22T08:28:46;30.17;56.91
69589;SHT31;56792;50.644;17.984;2023-06-22T08:31:14;30.31;56.42
69589;SHT31;56792;50.644;17.984;2023-06-22T08:33:42;30.45;56.77
69589;SHT31;56792;50.644;17.984;2023-06-22T08:36:12;30.64;57.83
69589;SHT31;56792;50.644;17.984;2023-06-22T08:38:40;30.73;56.14
69589;SHT31;56792;50.644;17.984;2023-06-22T08:41:08;30.74;55.57
69589;SHT31;56792;50.644;17.984;2023-06-22T08:43:36;30.85;55.06
69589;SHT31;56792;50.644;17.984;2023-06-22T08:46:05;30.95;54.42
69589;SHT31;56792;50.644;17.984;2023-06-22T08:48:33;30.96;54.19
69589;SHT31;56792;50.644;17.984;2023-06-22T08:51:01;31.05;54.49
69589;SHT31;56792;50.644;17.984;2023-06-22T08:53:30;31.13;53.73
69589;SHT31;56792;50.644;17.984;2023-06-22T08:56:00;31.26;53.63
69589;SHT31;56792;50.644;17.984;2023-06-22T08:58:29;31.37;52.75
69589;SHT31;56792;50.644;17.984;2023-06-22T09:00:57;31.45;52.53
69589;SHT31;56792;50.644;17.984;2023-06-22T09:03:27;31.58;52.96
69589;SHT31;56792;50.644;17.984;2023-06-22T09:05:55;31.71;52.48
69589;SHT31;56792;50.644;17.984;2023-06-22T09:08:23;31.81;51.41
69589;SHT31;56792;50.644;17.984;2023-06-22T09:10:51;31.97;51.63
69589;SHT31;56792;50.644;17.984;2023-06-22T09:13:20;32.17;51.24
69589;SHT31;56792;50.644;17.984;2023-06-22T09:15:48;32.34;51.16
69589;SHT31;56792;50.644;17.984;2023-06-22T09:18:17;32.52;51.03
69589;SHT31;56792;50.644;17.984;2023-06-22T09:20:45;32.66;50.21
69589;SHT31;56792;50.644;17.984;2023-06-22T09:23:14;32.73;49.68
69589;SHT31;56792;50.644;17.984;2023-06-22T09:25:42;32.87;48.98
69589;SHT31;56792;50.644;17.984;2023-06-22T09:28:13;32.92;49.02
69589;SHT31;56792;50.644;17.984;2023-06-22T09:30:42;32.94;48.11
69589;SHT31;56792;50.644;17.984;2023-06-22T09:33:11;32.99;48.42
69589;SHT31;56792;50.644;17.984;2023-06-22T09:35:39;33.04;48.19
69589;SHT31;56792;50.644;17.984;2023-06-22T09:38:07;33.14;46.24
69589;SHT31;56792;50.644;17.984;2023-06-22T09:40:35;33.13;46.72
69589;SHT31;56792;50.644;17.984;2023-06-22T09:43:05;33.24;47.16
69589;SHT31;56792;50.644;17.984;2023-06-22T09:45:34;33.41;47.39
69589;SHT31;56792;50.644;17.984;2023-06-22T09:48:02;33.51;45.71
69589;SHT31;56792;50.644;17.984;2023-06-22T09:50:31;33.47;44.74
69589;SHT31;56792;50.644;17.984;2023-06-22T09:52:59;33.58;46.13
69589;SHT31;56792;50.644;17.984;2023-06-22T09:55:28;33.69;43.61
69589;SHT31;56792;50.644;17.984;2023-06-22T09:57:56;33.65;43.34
69589;SHT31;56792;50.644;17.984;2023-06-22T10:00:24;33.74;44.96
69589;SHT31;56792;50.644;17.984;2023-06-22T10:02:52;33.90;45.28
69589;SHT31;56792;50.644;17.984;2023-06-22T10:05:21;33.92;44.83
69589;SHT31;56792;50.644;17.984;2023-06-22T10:07:50;33.97;44.53
69589;SHT31;56792;50.644;17.984;2023-06-22T10:10:18;34.03;44.30
69589;SHT31;56792;50.644;17.984;2023-06-22T10:12:47;34.07;44.29
69589;SHT31;56792;50.644;17.984;2023-06-22T10:15:24;34.10;43.95
69589;SHT31;56792;50.644;17.984;2023-06-22T10:17:52;34.24;44.31
69589;SHT31;56792;50.644;17.984;2023-06-22T10:20:21;34.43;44.45
69589;SHT31;56792;50.644;17.984;2023-06-22T10:22:49;34.59;43.94
69589;SHT31;56792;50.644;17.984;2023-06-22T10:25:18;34.69;43.19
69589;SHT31;56792;50.644;17.984;2023-06-22T10:27:47;34.80;43.62
69589;SHT31;56792;50.644;17.984;2023-06-22T10:30:17;34.98;43.40
69589;SHT31;56792;50.644;17.984;2023-06-22T10:32:45;35.11;41.59
69589;SHT31;56792;50.644;17.984;2023-06-22T10:35:14;35.10;42.09
69589;SHT31;56792;50.644;17.984;2023-06-22T10:37:43;35.16;41.27
69589;SHT31;56792;50.644;17.984;2023-06-22T10:40:12;35.20;42.07
69589;SHT31;56792;50.644;17.984;2023-06-22T10:42:42;35.33;42.42
69589;SHT31;56792;50.644;17.984;2023-06-22T10:45:11;35.26;40.32
69589;SHT31;56792;50.644;17.984;2023-06-22T10:47:39;35.04;40.91
69589;SHT31;56792;50.644;17.984;2023-06-22T10:50:08;35.04;41.23
69589;SHT31;56792;50.644;17.984;2023-06-22T10:52:37;35.04;41.11
69589;SHT31;56792;50.644;17.984;2023-06-22T10:55:07;35.00;40.55
69589;SHT31;56792;50.644;17.984;2023-06-22T10:57:37;34.91;40.56
69589;SHT31;56792;50.644;17.984;2023-06-22T11:00:09;34.81;40.84
69589;SHT31;56792;50.644;17.984;2023-06-22T11:02:40;34.71;40.63
69589;SHT31;56792;50.644;17.984;2023-06-22T11:05:09;34.60;41.10
69589;SHT31;56792;50.644;17.984;2023-06-22T11:07:37;34.55;40.49
69589;SHT31;56792;50.644;17.984;2023-06-22T11:10:09;34.58;41.52
69589;SHT31;56792;50.644;17.984;2023-06-22T11:12:38;34.75;41.11
69589;SHT31;56792;50.644;17.984;2023-06-22T11:15:07;34.79;39.42
69589;SHT31;56792;50.644;17.984;2023-06-22T11:17:36;34.70;39.13
69589;SHT31;56792;50.644;17.984;2023-06-22T11:20:05;34.67;39.28
69589;SHT31;56792;50.644;17.984;2023-06-22T11:22:37;34.74;40.68
69589;SHT31;56792;50.644;17.984;2023-06-22T11:25:06;34.94;41.18
69589;SHT31;56792;50.644;17.984;2023-06-22T11:27:37;35.07;40.11
69589;SHT31;56792;50.644;17.984;2023-06-22T11:30:07;35.26;40.29
69589;SHT31;56792;50.644;17.984;2023-06-22T11:32:36;35.25;38.12
69589;SHT31;56792;50.644;17.984;2023-06-22T11:35:05;35.17;39.01
69589;SHT31;56792;50.644;17.984;2023-06-22T11:37:34;35.13;39.48
69589;SHT31;56792;50.644;17.984;2023-06-22T11:40:02;35.20;39.66
69589;SHT31;56792;50.644;17.984;2023-06-22T11:42:35;35.33;39.71
69589;SHT31;56792;50.644;17.984;2023-06-22T11:45:04;35.52;40.25
69589;SHT31;56792;50.644;17.984;2023-06-22T11:47:34;35.70;39.54
69589;SHT31;56792;50.644;17.984;2023-06-22T11:50:02;35.85;39.68
69589;SHT31;56792;50.644;17.984;2023-06-22T11:52:33;35.92;39.22
69589;SHT31;56792;50.644;17.984;2023-06-22T11:55:02;35.95;38.60
69589;SHT31;56792;50.644;17.984;2023-06-22T11:57:33;35.84;38.00
69589;SHT31;56792;50.644;17.984;2023-06-22T12:00:03;35.69;38.25
69589;SHT31;56792;50.644;17.984;2023-06-22T12:02:42;35.54;38.60
69589;SHT31;56792;50.644;17.984;2023-06-22T12:05:11;35.27;37.96
69589;SHT31;56792;50.644;17.984;2023-06-22T12:07:39;35.14;38.66
69589;SHT31;56792;50.644;17.984;2023-06-22T12:10:08;35.21;39.45
69589;SHT31;56792;50.644;17.984;2023-06-22T12:12:37;35.21;39.20
69589;SHT31;56792;50.644;17.984;2023-06-22T12:15:05;35.21;38.88
69589;SHT31;56792;50.644;17.984;2023-06-22T12:17:35;35.33;39.19
69589;SHT31;56792;50.644;17.984;2023-06-22T12:20:04;35.40;39.02
69589;SHT31;56792;50.644;17.984;2023-06-22T12:22:35;35.40;38.95
69589;SHT31;56792;50.644;17.984;2023-06-22T12:25:04;35.28;38.05
69589;SHT31;56792;50.644;17.984;2023-06-22T12:27:34;35.13;37.99
69589;SHT31;56792;50.644;17.984;2023-06-22T12:30:04;35.02;37.87
69589;SHT31;56792;50.644;17.984;2023-06-22T12:32:34;35.00;38.17
69589;SHT31;56792;50.644;17.984;2023-06-22T12:35:03;34.96;39.45
69589;SHT31;56792;50.644;17.984;2023-06-22T12:37:37;35.11;39.42
69589;SHT31;56792;50.644;17.984;2023-06-22T12:40:07;35.18;38.26
69589;SHT31;56792;50.644;17.984;2023-06-22T12:42:37;35.31;39.83
69589;SHT31;56792;50.644;17.984;2023-06-22T12:45:06;35.45;38.15
69589;SHT31;56792;50.644;17.984;2023-06-22T12:47:36;35.50;37.18
69589;SHT31;56792;50.644;17.984;2023-06-22T12:50:06;35.53;37.27
69589;SHT31;56792;50.644;17.984;2023-06-22T12:52:36;35.50;36.44
69589;SHT31;56792;50.644;17.984;2023-06-22T12:55:07;35.50;36.82
69589;SHT31;56792;50.644;17.984;2023-06-22T12:57:36;35.50;36.90
69589;SHT31;56792;50.644;17.984;2023-06-22T13:00:08;35.58;37.12
69589;SHT31;56792;50.644;17.984;2023-06-22T13:02:39;35.68;36.89
69589;SHT31;56792;50.644;17.984;2023-06-22T13:05:08;35.73;36.86
69589;SHT31;56792;50.644;17.984;2023-06-22T13:07:36;35.81;37.73
69589;SHT31;56792;50.644;17.984;2023-06-22T13:10:06;35.84;37.92
69589;SHT31;56792;50.644;17.984;2023-06-22T13:12:35;35.83;37.19
69589;SHT31;56792;50.644;17.984;2023-06-22T13:15:04;35.81;37.18
69589;SHT31;56792;50.644;17.984;2023-06-22T13:17:34;35.80;36.08
69589;SHT31;56792;50.644;17.984;2023-06-22T13:20:03;35.58;36.10
69589;SHT31;56792;50.644;17.984;2023-06-22T13:22:34;35.53;36.29
69589;SHT31;56792;50.644;17.984;2023-06-22T13:25:06;35.56;36.52
69589;SHT31;56792;50.644;17.984;2023-06-22T13:27:37;35.53;35.48
69589;SHT31;56792;50.644;17.984;2023-06-22T13:30:07;35.46;35.43
69589;SHT31;56792;50.644;17.984;2023-06-22T13:32:37;35.44;35.33
69589;SHT31;56792;50.644;17.984;2023-06-22T13:35:08;35.44;35.80
69589;SHT31;56792;50.644;17.984;2023-06-22T13:37:36;35.34;35.99
69589;SHT31;56792;50.644;17.984;2023-06-22T13:40:06;35.21;36.12
69589;SHT31;56792;50.644;17.984;2023-06-22T13:42:35;35.03;35.74
69589;SHT31;56792;50.644;17.984;2023-06-22T13:45:04;34.85;36.34
69589;SHT31;56792;50.644;17.984;2023-06-22T13:47:35;34.91;36.89
69589;SHT31;56792;50.644;17.984;2023-06-22T13:50:04;34.94;37.07
69589;SHT31;56792;50.644;17.984;2023-06-22T13:52:34;34.94;36.36
69589;SHT31;56792;50.644;17.984;2023-06-22T13:55:02;34.91;37.06
69589;SHT31;56792;50.644;17.984;2023-06-22T13:57:33;34.91;37.47
69589;SHT31;56792;50.644;17.984;2023-06-22T14:00:01;34.91;36.76
69589;SHT31;56792;50.644;17.984;2023-06-22T14:02:37;34.90;37.04
69589;SHT31;56792;50.644;17.984;2023-06-22T14:05:07;34.82;36.30
69589;SHT31;56792;50.644;17.984;2023-06-22T14:07:37;34.70;34.95
69589;SHT31;56792;50.644;17.984;2023-06-22T14:10:06;34.48;35.84
69589;SHT31;56792;50.644;17.984;2023-06-22T14:12:35;34.50;37.42
69589;SHT31;56792;50.644;17.984;2023-06-22T14:15:04;34.56;37.24
69589;SHT31;56792;50.644;17.984;2023-06-22T14:17:34;34.58;37.71
69589;SHT31;56792;50.644;17.984;2023-06-22T14:20:03;34.61;37.74
69589;SHT31;56792;50.644;17.984;2023-06-22T14:22:34;34.60;36.98
69589;SHT31;56792;50.644;17.984;2023-06-22T14:25:04;34.56;36.96
69589;SHT31;56792;50.644;17.984;2023-06-22T14:27:34;34.50;36.50
69589;SHT31;56792;50.644;17.984;2023-06-22T14:30:02;34.45;36.33
69589;SHT31;56792;50.644;17.984;2023-06-22T14:32:32;34.39;36.47
69589;SHT31;56792;50.644;17.984;2023-06-22T14:35:00;34.36;35.92
69589;SHT31;56792;50.644;17.984;2023-06-22T14:37:29;34.29;36.17
69589;SHT31;56792;50.644;17.984;2023-06-22T14:39:57;34.28;37.02
69589;SHT31;56792;50.644;17.984;2023-06-22T14:42:25;34.26;36.84
69589;SHT31;56792;50.644;17.984;2023-06-22T14:44:56;33.97;37.12
69589;SHT31;56792;50.644;17.984;2023-06-22T14:47:24;33.46;37.99
69589;SHT31;56792;50.644;17.984;2023-06-22T14:49:52;33.30;38.64
69589;SHT31;56792;50.644;17.984;2023-06-22T14:52:21;33.35;38.03
69589;SHT31;56792;50.644;17.984;2023-06-22T14:54:49;33.39;38.30
69589;SHT31;56792;50.644;17.984;2023-06-22T14:57:18;33.41;38.32
69589;SHT31;56792;50.644;17.984;2023-06-22T14:59:48;33.41;38.57
69589;SHT31;56792;50.644;17.984;2023-06-22T15:02:17;33.39;38.70
69589;SHT31;56792;50.644;17.984;2023-06-22T15:04:45;33.42;39.08
69589;SHT31;56792;50.644;17.984;2023-06-22T15:07:13;33.42;38.92
69589;SHT31;56792;50.644;17.984;2023-06-22T15:09:41;33.42;39.25
69589;SHT31;56792;50.644;17.984;2023-06-22T15:12:11;33.33;38.02
69589;SHT31;56792;50.644;17.984;2023-06-22T15:14:39;33.26;38.09
69589;SHT31;56792;50.644;17.984;2023-06-22T15:17:08;33.24;38.50
69589;SHT31;56792;50.644;17.984;2023-06-22T15:19:36;33.26;39.25
69589;SHT31;56792;50.644;17.984;2023-06-22T15:22:06;33.26;38.74
69589;SHT31;56792;50.644;17.984;2023-06-22T15:24:34;33.21;38.50
69589;SHT31;56792;50.644;17.984;2023-06-22T15:27:03;33.20;37.94
69589;SHT31;56792;50.644;17.984;2023-06-22T15:29:32;33.18;38.53